Time;durP1;ratioP1;P1;durP2;ratioP2;P2;SDS_P1;SDS_P2;PMS_P1;PMS_P2;Temp;Humidity;BMP_temperature;BMP_pressure;BME280_temperature;BME280_humidity;BME280_pressure;Samples;Min_cycle;Max_cycle;Signal;HPM_P1;HPM_P2
2022/05/17 00:01:06;;;;;;;42.65;10.77;;;;;;;23.27;43.71;101032.31;5015510;28;20113;-75
2022/05/17 00:03:32;;;;;;;43.22;11.50;;;;;;;23.20;44.42;101035.06;5015749;28;20457;-75
2022/05/17 00:05:57;;;;;;;48.63;11.00;;;;;;;23.25;44.33;101032.72;5015832;28;20104;-76
2022/05/17 00:08:23;;;;;;;49.35;11.95;;;;;;;23.18;44.71;101029.09;5015536;28;20053;-76
2022/05/17 00:10:48;;;;;;;56.72;11.93;;;;;;;23.08;44.86;101022.31;5015359;28;20101;-75
2022/05/17 00:13:14;;;;;;;41.85;11.55;;;;;;;23.24;44.54;101022.75;5015519;28;20088;-76
2022/05/17 00:15:45;;;;;;;46.63;11.32;;;;;;;23.24;44.49;101021.97;5015732;28;20038;-82
2022/05/17 00:18:11;;;;;;;46.83;10.60;;;;;;;23.30;44.62;101027.97;4997970;28;20018;-94
2022/05/17 00:20:38;;;;;;;41.97;10.10;;;;;;;23.29;44.27;101023.59;5015286;28;20053;-76
2022/05/17 00:23:04;;;;;;;43.03;10.02;;;;;;;23.19;44.61;101027.91;5013756;28;20536;-91
2022/05/17 00:25:30;;;;;;;41.63;9.55;;;;;;;23.12;44.80;101030.66;4998117;28;20550;-76
2022/05/17 00:27:56;;;;;;;43.70;10.68;;;;;;;23.04;45.13;101032.63;5014704;28;20034;-75
2022/05/17 00:30:22;;;;;;;39.85;10.68;;;;;;;22.80;45.83;101033.25;4997852;28;20029;-76
2022/05/17 00:32:48;;;;;;;38.03;9.05;;;;;;;23.07;45.21;101031.06;4997097;28;20037;-75
2022/05/17 00:35:14;;;;;;;41.72;10.43;;;;;;;22.97;45.23;101027.00;5015213;28;20034;-76
2022/05/17 00:37:40;;;;;;;44.03;10.38;;;;;;;22.95;45.20;101029.41;4997216;28;20101;-76
2022/05/17 00:40:07;;;;;;;51.10;12.07;;;;;;;22.93;45.24;101023.44;5015333;28;20441;-76
2022/05/17 00:42:32;;;;;;;39.83;10.63;;;;;;;22.94;45.16;101019.44;5014993;28;20054;-75
2022/05/17 00:44:58;;;;;;;34.50;8.90;;;;;;;22.92;45.09;101019.84;5015215;28;20033;-76
2022/05/17 00:47:32;;;;;;;44.03;9.68;;;;;;;22.92;45.09;101022.63;5014968;28;20034;-76
2022/05/17 00:50:05;;;;;;;45.10;9.85;;;;;;;22.84;45.48;101014.59;5015001;28;20469;-76
2022/05/17 00:52:38;;;;;;;36.50;9.75;;;;;;;22.74;45.93;101013.31;5014513;28;20030;-94
2022/05/17 00:55:09;;;;;;;34.10;9.10;;;;;;;22.82;45.72;101016.94;5014746;28;20026;-76
2022/05/17 00:57:39;;;;;;;29.58;8.70;;;;;;;22.69;45.72;101017.28;5014602;28;20650;-76
2022/05/17 01:00:12;;;;;;;33.13;9.35;;;;;;;22.81;45.60;101007.00;5014737;28;20121;-84
2022/05/17 01:02:44;;;;;;;31.40;8.73;;;;;;;22.87;45.27;100999.91;5014773;28;20030;-94
2022/05/17 01:05:10;;;;;;;30.85;8.73;;;;;;;22.82;45.17;101005.81;5014895;28;20041;-93
2022/05/17 01:07:41;;;;;;;26.42;8.15;;;;;;;22.84;45.43;101003.44;5014453;28;20034;-76
2022/05/17 01:10:09;;;;;;;30.05;8.23;;;;;;;22.77;45.27;100995.84;5014672;28;20034;-76
2022/05/17 01:12:36;;;;;;;25.35;6.95;;;;;;;22.75;45.33;100995.44;5014356;28;20464;-80
2022/05/17 01:15:04;;;;;;;32.05;8.52;;;;;;;22.80;45.29;100985.91;5014356;28;20032;-75
2022/05/17 01:17:33;;;;;;;34.33;7.93;;;;;;;22.74;45.27;100988.25;5014743;28;20034;-89
2022/05/17 01:20:00;;;;;;;32.40;8.77;;;;;;;22.40;46.50;100987.66;5014397;28;20034;-76
2022/05/17 01:22:26;;;;;;;34.38;9.35;;;;;;;22.23;46.59;100983.59;5014489;28;20180;-77
2022/05/17 01:24:52;;;;;;;32.25;8.90;;;;;;;22.40;46.16;100985.69;4996552;28;20124;-79
2022/05/17 01:27:32;;;;;;;23.88;8.00;;;;;;;22.31;46.95;100987.22;4996771;28;20185;-76
2022/05/17 01:29:58;;;;;;;36.95;8.77;;;;;;;22.39;46.62;100991.66;5013999;28;20030;-75
2022/05/17 01:32:24;;;;;;;36.22;8.95;;;;;;;22.34;46.83;100984.44;5014355;28;20503;-93
2022/05/17 01:34:50;;;;;;;40.28;10.88;;;;;;;22.37;46.76;100980.91;5014137;28;20434;-75
2022/05/17 01:37:19;;;;;;;44.28;12.50;;;;;;;22.34;47.24;100973.31;5013946;28;20124;-75
2022/05/17 01:39:45;;;;;;;42.38;10.95;;;;;;;22.30;47.38;100966.13;5012983;28;20048;-76
2022/05/17 01:42:12;;;;;;;39.70;10.93;;;;;;;22.27;47.39;100964.13;5014365;28;20026;-75
2022/05/17 01:44:41;;;;;;;42.30;10.90;;;;;;;22.29;47.49;100965.34;5014062;28;20032;-75
2022/05/17 01:47:07;;;;;;;45.13;11.23;;;;;;;22.34;47.23;100961.38;5014548;28;20018;-85
2022/05/17 01:49:33;;;;;;;49.22;12.57;;;;;;;22.34;47.19;100966.94;5013743;28;20484;-96
2022/05/17 01:51:59;;;;;;;45.92;12.32;;;;;;;22.32;47.21;100955.41;5013743;28;20030;-93
2022/05/17 01:54:24;;;;;;;39.97;12.50;;;;;;;22.32;47.17;100966.53;5013659;28;20375;-75
2022/05/17 01:56:50;;;;;;;41.13;11.35;;;;;;;22.01;47.91;100963.09;5013797;28;20022;-75
2022/05/17 01:59:17;;;;;;;41.70;11.63;;;;;;;22.31;47.15;100959.38;5012999;28;20548;-76
2022/05/17 02:01:44;;;;;;;39.13;11.90;;;;;;;22.10;47.77;100969.16;5013622;28;20021;-75
2022/05/17 02:04:11;;;;;;;47.13;12.07;;;;;;;22.30;47.16;100963.34;4995749;28;20500;-76
2022/05/17 02:06:36;;;;;;;44.72;12.07;;;;;;;22.32;47.08;100956.19;4995945;28;20112;-87
2022/05/17 02:09:02;;;;;;;52.38;12.35;;;;;;;22.08;47.64;100965.97;5013103;28;20105;-76
2022/05/17 02:11:28;;;;;;;33.67;11.38;;;;;;;21.61;48.95;100961.16;5013551;28;20107;-75
2022/05/17 02:13:53;;;;;;;46.85;11.23;;;;;;;21.79;48.33;100961.34;5013033;28;20030;-75
2022/05/17 02:16:19;;;;;;;41.47;10.95;;;;;;;21.95;47.97;100961.88;4995794;28;20032;-76
2022/05/17 02:18:45;;;;;;;38.53;11.05;;;;;;;22.10;47.51;100954.47;5013149;28;20036;-76
2022/05/17 02:21:10;;;;;;;42.13;10.77;;;;;;;22.04;47.62;100953.97;5012891;28;20056;-75
2022/05/17 02:23:36;;;;;;;49.72;11.45;;;;;;;22.29;46.84;100945.03;5013516;28;20033;-76
2022/05/17 02:26:02;;;;;;;40.78;9.18;;;;;;;22.10;47.06;100938.56;5013516;28;20026;-76
2022/05/17 02:28:27;;;;;;;55.80;12.48;;;;;;;22.13;46.98;100940.56;5012908;28;20038;-75
2022/05/17 02:30:53;;;;;;;37.65;10.32;;;;;;;22.15;46.97;100938.22;5012461;28;20528;-76
2022/05/17 02:33:18;;;;;;;39.28;10.07;;;;;;;22.08;47.07;100938.16;5012666;28;20026;-94
2022/05/17 02:35:45;;;;;;;37.03;9.38;;;;;;;22.10;47.06;100935.78;5012907;28;20472;-75
2022/05/17 02:38:10;;;;;;;31.75;9.95;;;;;;;22.12;47.03;100932.59;5013390;28;20025;-76
2022/05/17 02:40:36;;;;;;;32.65;9.43;;;;;;;22.27;46.63;100934.28;5013268;28;20084;-76
2022/05/17 02:43:03;;;;;;;35.13;9.43;;;;;;;22.34;46.46;100931.56;5013070;28;20072;-95
2022/05/17 02:45:30;;;;;;;35.20;10.07;;;;;;;22.30;46.58;100924.38;5013224;28;20092;-80
2022/05/17 02:47:56;;;;;;;37.22;10.98;;;;;;;22.00;47.64;100925.34;5012838;28;20026;-76
2022/05/17 02:50:22;;;;;;;37.17;10.40;;;;;;;22.23;47.07;100924.34;5012285;28;20527;-76
2022/05/17 02:52:48;;;;;;;44.35;10.73;;;;;;;22.28;46.76;100916.41;5012819;28;20048;-76
2022/05/17 02:55:14;;;;;;;37.33;9.57;;;;;;;22.39;46.51;100928.41;5012913;28;20022;-75
2022/05/17 02:57:39;;;;;;;36.33;10.68;;;;;;;22.29;46.83;100931.13;5012993;28;20104;-93
2022/05/17 03:00:09;;;;;;;36.17;9.93;;;;;;;22.28;46.67;100919.19;5012288;28;20524;-78
2022/05/17 03:02:34;;;;;;;34.67;10.50;;;;;;;22.23;46.85;100913.22;5012827;28;20057;-75
2022/05/17 03:05:00;;;;;;;39.95;10.30;;;;;;;22.20;46.94;100911.19;5013153;28;20030;-76
2022/05/17 03:07:26;;;;;;;38.50;9.98;;;;;;;22.14;47.06;100906.00;5012534;28;20025;-75
2022/05/17 03:09:51;;;;;;;46.45;10.10;;;;;;;22.12;47.08;100902.00;5012617;28;20065;-94
2022/05/17 03:12:17;;;;;;;36.83;9.13;;;;;;;21.97;47.49;100916.97;5012794;28;20041;-95
2022/05/17 03:14:43;;;;;;;32.05;8.70;;;;;;;21.79;48.14;100917.63;5012940;28;20026;-75
2022/05/17 03:17:14;;;;;;;41.58;10.85;;;;;;;21.62;49.07;100917.50;5012870;28;20049;-76
2022/05/17 03:19:40;;;;;;;40.88;9.90;;;;;;;21.95;47.95;100920.13;5012624;28;20515;-76
2022/05/17 03:22:06;;;;;;;40.50;11.82;;;;;;;21.94;48.06;100914.97;5012618;28;20030;-76
2022/05/17 03:24:32;;;;;;;34.17;10.38;;;;;;;21.76;48.62;100920.38;5012684;28;20037;-76
2022/05/17 03:26:58;;;;;;;46.92;10.32;;;;;;;21.51;49.29;100922.94;5012481;28;20030;-76
2022/05/17 03:29:24;;;;;;;45.05;11.35;;;;;;;21.87;48.23;100927.63;5012307;28;20033;-90
2022/05/17 03:31:51;;;;;;;42.88;11.20;;;;;;;22.04;47.74;100931.72;5012827;28;20085;-75
2022/05/17 03:34:17;;;;;;;35.38;9.57;;;;;;;22.06;47.86;100929.34;5012895;28;20053;-76
2022/05/17 03:36:43;;;;;;;47.35;12.15;;;;;;;22.09;47.76;100920.28;5012485;28;20049;-76
2022/05/17 03:39:09;;;;;;;43.35;10.85;;;;;;;22.13;47.58;100918.28;5011943;28;20468;-75
2022/05/17 03:41:35;;;;;;;41.85;10.55;;;;;;;22.14;47.45;100905.19;5012739;28;20038;-76
2022/05/17 03:44:01;;;;;;;37.95;10.93;;;;;;;22.20;47.57;100919.53;5012836;28;20080;-76
2022/05/17 03:46:26;;;;;;;33.20;10.60;;;;;;;22.22;47.44;100914.38;5012649;28;20026;-76
2022/05/17 03:48:52;;;;;;;46.03;10.65;;;;;;;22.08;47.98;100910.31;5012433;28;20087;-76
2022/05/17 03:51:19;;;;;;;39.70;10.45;;;;;;;22.13;48.02;100911.94;5012430;28;20432;-76
2022/05/17 03:53:47;;;;;;;43.13;11.35;;;;;;;22.34;47.49;100919.63;5012259;28;20049;-76
2022/05/17 03:56:13;;;;;;;34.90;9.30;;;;;;;22.32;47.31;100920.00;5012441;28;20041;-94
2022/05/17 03:58:39;;;;;;;30.52;9.57;;;;;;;22.28;47.71;100927.53;5012406;28;20029;-75
2022/05/17 04:01:06;;;;;;;39.08;11.18;;;;;;;22.29;47.41;100925.53;5011691;28;20099;-76
2022/05/17 04:03:32;;;;;;;44.03;9.98;;;;;;;22.40;47.54;100934.78;5015857;28;20103;-76
2022/05/17 04:05:58;;;;;;;32.50;10.25;;;;;;;22.45;47.20;100928.84;5016049;28;20018;-75
2022/05/17 04:08:25;;;;;;;39.10;10.77;;;;;;;22.44;47.44;100924.44;5015791;28;20499;-76
2022/05/17 04:10:50;;;;;;;41.88;10.82;;;;;;;22.49;47.41;100921.28;4998092;28;20041;-91
2022/05/17 04:13:16;;;;;;;39.80;10.88;;;;;;;22.35;47.81;100910.88;4998149;28;20026;-76
2022/05/17 04:15:42;;;;;;;40.92;10.90;;;;;;;22.33;47.66;100913.25;5015554;28;20026;-94
2022/05/17 04:18:08;;;;;;;45.40;13.40;;;;;;;22.55;47.17;100925.31;5015503;28;20512;-75
2022/05/17 04:20:35;;;;;;;44.65;12.73;;;;;;;22.70;46.79;100915.03;5015048;28;20040;-76
2022/05/17 04:23:00;;;;;;;47.33;12.70;;;;;;;22.58;47.16;100907.81;5015331;28;20018;-76
2022/05/17 04:25:27;;;;;;;43.03;12.52;;;;;;;22.55;46.85;100908.59;5015496;28;20379;-88
2022/05/17 04:27:54;;;;;;;42.45;12.65;;;;;;;22.52;47.26;100909.41;5015461;28;20018;-77
2022/05/17 04:30:20;;;;;;;49.20;11.93;;;;;;;22.31;47.81;100890.59;5015442;28;20435;-75
2022/05/17 04:32:47;;;;;;;35.53;11.15;;;;;;;22.41;47.52;100894.59;5015409;28;20025;-76
2022/05/17 04:35:13;;;;;;;41.30;10.98;;;;;;;22.47;47.39;100884.69;5015211;28;20026;-76
2022/05/17 04:37:39;;;;;;;47.45;12.68;;;;;;;22.45;47.44;100892.66;5015187;28;20068;-76
2022/05/17 04:40:09;;;;;;;50.92;11.35;;;;;;;22.50;47.43;100885.91;5014819;28;20038;-75
2022/05/17 04:42:39;;;;;;;47.95;12.07;;;;;;;22.28;48.26;100883.00;5014999;28;20048;-75
2022/05/17 04:45:08;;;;;;;38.83;11.57;;;;;;;22.31;48.18;100870.31;5015292;28;20026;-76
2022/05/17 04:47:33;;;;;;;44.50;11.77;;;;;;;22.24;47.96;100861.91;5014801;28;20037;-76
2022/05/17 04:49:59;;;;;;;42.05;11.65;;;;;;;22.13;48.37;100867.41;5014738;28;20112;-93
2022/05/17 04:52:26;;;;;;;49.83;12.48;;;;;;;22.39;47.80;100881.09;5014852;28;20026;-76
2022/05/17 04:54:52;;;;;;;52.35;13.05;;;;;;;22.31;47.86;100875.88;5015152;28;20022;-96
2022/05/17 04:57:18;;;;;;;50.42;12.82;;;;;;;22.28;48.06;100865.50;4997484;28;20033;-76
2022/05/17 04:59:44;;;;;;;56.25;13.20;;;;;;;22.44;47.39;100874.34;5014656;28;20056;-76
2022/05/17 05:02:10;;;;;;;46.28;12.82;;;;;;;22.38;47.81;100865.56;4997009;28;20137;-75
2022/05/17 05:04:39;;;;;;;46.55;12.57;;;;;;;22.32;48.16;100874.69;5014585;28;20115;-75
2022/05/17 05:07:06;;;;;;;49.17;13.23;;;;;;;22.30;48.11;100871.50;5014528;28;20021;-75
2022/05/17 05:09:32;;;;;;;40.88;11.48;;;;;;;22.41;48.11;100883.47;4996817;28;20108;-76
2022/05/17 05:11:59;;;;;;;49.80;12.23;;;;;;;22.52;47.39;100887.13;5014743;28;20029;-76
2022/05/17 05:14:26;;;;;;;48.97;12.00;;;;;;;22.64;47.41;100897.91;5014274;28;20038;-76
2022/05/17 05:16:52;;;;;;;69.07;15.18;;;;;;;22.71;47.24;100899.91;5014072;28;20121;-76
2022/05/17 05:19:18;;;;;;;46.70;12.65;;;;;;;22.71;47.13;100899.91;4996191;28;20059;-76
2022/05/17 05:21:44;;;;;;;46.58;12.23;;;;;;;22.83;46.96;100901.56;4996796;28;20053;-76
2022/05/17 05:24:11;;;;;;;39.55;11.68;;;;;;;22.86;46.87;100903.59;4996498;28;20417;-76
2022/05/17 05:26:38;;;;;;;38.05;9.45;;;;;;;22.85;47.46;100894.44;4996959;28;20392;-76
2022/05/17 05:29:05;;;;;;;50.42;11.07;;;;;;;22.91;47.49;100903.22;4996131;28;20022;-76
2022/05/17 05:31:30;;;;;;;33.30;11.63;;;;;;;22.81;47.92;100909.50;5014865;28;20025;-95
2022/05/17 05:33:56;;;;;;;34.30;9.70;;;;;;;22.65;48.31;100902.28;5014259;28;20097;-75
2022/05/17 05:36:22;;;;;;;40.05;10.52;;;;;;;22.74;48.20;100915.03;5015508;28;20018;-94
2022/05/17 05:38:48;;;;;;;40.55;10.48;;;;;;;22.63;48.56;100920.56;5013456;28;20066;-77
2022/05/17 05:41:14;;;;;;;38.97;10.80;;;;;;;22.99;47.71;100915.97;5014466;28;20038;-76
2022/05/17 05:43:40;;;;;;;44.13;11.52;;;;;;;23.08;47.36;100921.19;5015148;28;20014;-93
2022/05/17 05:46:06;;;;;;;32.78;8.82;;;;;;;22.93;47.76;100923.13;5015617;28;20519;-75
2022/05/17 05:48:32;;;;;;;36.97;11.05;;;;;;;22.90;48.16;100913.56;5014074;28;20030;-75
2022/05/17 05:50:58;;;;;;;44.22;10.15;;;;;;;23.03;47.70;100913.97;5012990;28;20054;-94
2022/05/17 05:53:24;;;;;;;40.97;10.52;;;;;;;23.07;47.49;100916.81;5013887;28;20022;-75
2022/05/17 05:55:54;;;;;;;38.55;9.52;;;;;;;23.12;47.25;100921.97;5016064;28;20025;-76
2022/05/17 05:58:19;;;;;;;31.90;9.18;;;;;;;23.16;47.22;100922.78;5015872;28;20017;-79
2022/05/17 06:00:45;;;;;;;35.67;10.13;;;;;;;23.06;47.32;100924.38;5016965;28;20439;-77
2022/05/17 06:03:10;;;;;;;30.08;8.27;;;;;;;23.30;46.48;100919.25;5013167;28;20029;-75
2022/05/17 06:05:37;;;;;;;33.97;9.48;;;;;;;23.39;46.66;100916.84;4996395;28;20369;-76
2022/05/17 06:08:03;;;;;;;33.55;9.43;;;;;;;23.32;46.71;100930.78;4996381;28;20095;-80
2022/05/17 06:10:29;;;;;;;20.48;6.78;;;;;;;23.37;46.39;100922.84;5016390;28;20028;-94
2022/05/17 06:12:55;;;;;;;33.65;8.55;;;;;;;23.47;46.47;100915.69;5014673;28;20097;-76
2022/05/17 06:15:21;;;;;;;23.25;7.18;;;;;;;23.39;46.66;100923.22;5014550;28;20026;-94
2022/05/17 06:17:47;;;;;;;26.58;7.97;;;;;;;23.47;46.22;100929.63;5013896;28;20022;-76
2022/05/17 06:20:14;;;;;;;28.90;7.20;;;;;;;23.53;46.41;100939.19;5012115;28;20476;-76
2022/05/17 06:22:40;;;;;;;19.38;6.65;;;;;;;23.59;46.27;100942.38;5009478;28;20022;-86
2022/05/17 06:25:07;;;;;;;30.48;7.15;;;;;;;23.40;46.49;100944.34;5009904;28;20384;-76
2022/05/17 06:27:32;;;;;;;17.60;6.07;;;;;;;23.39;46.92;100944.75;5002202;28;20026;-77
2022/05/17 06:29:58;;;;;;;19.25;6.32;;;;;;;23.49;46.38;100949.53;5004784;28;20494;-76
2022/05/17 06:32:24;;;;;;;20.08;6.53;;;;;;;23.29;47.19;100935.16;4993769;28;20029;-82
2022/05/17 06:34:50;;;;;;;25.33;5.85;;;;;;;23.45;46.74;100932.81;5012432;28;20029;-76
2022/05/17 06:37:15;;;;;;;19.27;4.95;;;;;;;23.33;47.13;100949.09;5013364;28;20022;-76
2022/05/17 06:39:42;;;;;;;19.90;6.30;;;;;;;23.42;47.04;100941.16;5010829;28;20111;-77
2022/05/17 06:42:08;;;;;;;16.15;5.75;;;;;;;23.41;47.02;100945.13;5010936;28;20022;-78
2022/05/17 06:44:39;;;;;;;15.65;4.80;;;;;;;23.43;46.99;100949.16;5013567;28;20030;-76
2022/05/17 06:47:05;;;;;;;16.75;6.00;;;;;;;23.26;47.70;100947.09;5020629;28;20045;-79
2022/05/17 06:49:32;;;;;;;27.50;6.55;;;;;;;23.16;47.87;100957.03;5015459;28;20121;-77
2022/05/17 06:52:01;;;;;;;22.02;5.80;;;;;;;23.15;47.86;100969.38;5012272;28;20084;-93
2022/05/17 06:54:26;;;;;;;20.23;5.68;;;;;;;23.28;47.49;100969.03;4995211;28;20399;-80
2022/05/17 06:56:52;;;;;;;24.50;6.57;;;;;;;23.27;47.47;100971.00;5025596;28;20033;-76
2022/05/17 06:59:18;;;;;;;25.00;5.80;;;;;;;23.42;47.15;100969.84;5033158;28;20515;-76
2022/05/17 07:01:44;;;;;;;20.15;5.88;;;;;;;23.35;47.58;100949.50;5032252;28;20057;-76
2022/05/17 07:04:10;;;;;;;21.33;5.28;;;;;;;23.35;47.66;100966.22;5032568;28;20147;-86
2022/05/17 07:06:36;;;;;;;20.25;5.25;;;;;;;23.36;47.90;100962.28;5015032;28;20108;-76
2022/05/17 07:09:02;;;;;;;17.08;6.07;;;;;;;23.35;47.91;100971.81;5032237;28;20026;-76
2022/05/17 07:14:11;;;;;;;11.80;4.47;;;;;;;23.73;46.88;100981.50;5033038;28;20032;-92
2022/05/17 07:16:37;;;;;;;18.33;5.93;;;;;;;23.80;46.62;100982.31;5032820;28;20022;-76
2022/05/17 07:19:02;;;;;;;14.20;4.47;;;;;;;23.73;46.78;100987.88;5032694;28;20113;-76
2022/05/17 07:21:28;;;;;;;16.42;4.97;;;;;;;23.71;46.89;100987.44;5032170;28;20472;-77
2022/05/17 07:23:53;;;;;;;20.77;4.95;;;;;;;23.77;46.56;101001.81;5032401;28;20427;-76
2022/05/17 07:26:19;;;;;;;9.30;4.13;;;;;;;23.77;46.80;100996.22;5032285;28;20387;-76
2022/05/17 07:28:47;;;;;;;14.02;5.20;;;;;;;23.88;46.37;100999.84;5014364;28;20542;-78
2022/05/17 07:31:13;;;;;;;20.45;5.20;;;;;;;23.78;46.89;101001.41;4994840;28;20665;-76
2022/05/17 07:33:41;;;;;;;12.02;3.50;;;;;;;23.53;47.20;101000.53;5012374;28;20030;-80
2022/05/17 07:36:08;;;;;;;16.70;5.78;;;;;;;23.50;47.79;101004.09;5012372;28;20026;-76
2022/05/17 07:38:35;;;;;;;13.45;4.57;;;;;;;23.54;47.69;101014.09;5015418;28;20022;-76
2022/05/17 07:41:01;;;;;;;15.80;5.15;;;;;;;23.71;47.18;101017.34;5015462;28;20037;-75
2022/05/17 07:43:26;;;;;;;19.33;5.38;;;;;;;23.59;47.70;101026.88;5015274;28;20026;-75
2022/05/17 07:45:52;;;;;;;16.38;4.78;;;;;;;23.74;47.83;101022.94;5016662;28;20101;-75
2022/05/17 07:48:20;;;;;;;16.00;5.93;;;;;;;23.84;47.58;101023.34;5016881;28;20388;-92
2022/05/17 07:50:46;;;;;;;16.48;4.18;;;;;;;23.77;47.94;101024.94;5016957;28;20080;-94
2022/05/17 07:53:14;;;;;;;17.00;4.95;;;;;;;23.57;48.73;101029.22;5017557;28;20022;-94
2022/05/17 07:55:41;;;;;;;14.60;4.60;;;;;;;23.90;47.49;101018.97;5017449;28;20018;-91
2022/05/17 07:58:07;;;;;;;18.05;5.10;;;;;;;24.02;47.64;101026.94;5017283;28;20022;-94
2022/05/17 08:00:33;;;;;;;18.92;4.78;;;;;;;23.96;47.77;101023.75;5016925;28;20029;-77
2022/05/17 08:03:00;;;;;;;14.27;4.35;;;;;;;23.96;47.74;101026.56;5016891;28;20026;-84
2022/05/17 08:05:28;;;;;;;25.05;6.85;;;;;;;23.79;48.35;101022.53;5015639;28;20097;-75
2022/05/17 08:07:53;;;;;;;18.70;5.05;;;;;;;23.92;48.25;101019.38;5015735;28;20550;-76
2022/05/17 08:10:20;;;;;;;16.55;5.00;;;;;;;23.91;48.16;101013.00;5015926;28;20029;-76
2022/05/17 08:12:46;;;;;;;18.73;5.38;;;;;;;23.99;47.79;101027.75;5015051;28;20028;-76
2022/05/17 08:15:12;;;;;;;22.30;5.68;;;;;;;23.97;47.84;101025.34;5016846;28;20026;-93
2022/05/17 08:17:38;;;;;;;26.10;6.22;;;;;;;24.13;47.49;101027.75;5016224;28;20476;-76
2022/05/17 08:20:09;;;;;;;21.63;5.72;;;;;;;24.22;47.02;101036.53;5015085;28;20034;-76
2022/05/17 08:22:38;;;;;;;19.05;5.47;;;;;;;24.21;47.14;101034.13;5015039;28;20472;-77
2022/05/17 08:27:49;;;;;;;16.90;5.65;;;;;;;24.61;46.04;101024.53;5014562;28;20065;-75
2022/05/17 08:30:19;;;;;;;20.25;6.43;;;;;;;24.62;45.57;101024.13;5014732;28;20626;-75
2022/05/17 08:35:55;;;;;;;26.55;5.97;;;;;;;24.92;44.82;101017.28;5001187;28;20052;-75
2022/05/17 08:38:30;;;;;;;18.20;4.82;;;;;;;24.95;44.76;101018.47;5015140;28;20116;-75
2022/05/17 08:41:22;;;;;;;24.08;6.13;;;;;;;24.82;45.20;101024.50;5015189;28;20029;-76
2022/05/17 08:44:02;;;;;;;24.25;5.90;;;;;;;24.89;44.96;101006.91;5007640;28;20030;-85
2022/05/17 08:46:43;;;;;;;18.05;5.72;;;;;;;25.00;44.77;101001.28;5010866;28;20061;-76
2022/05/17 08:49:25;;;;;;;24.80;6.50;;;;;;;24.95;44.83;100998.91;5014582;28;20080;-94
2022/05/17 08:52:13;;;;;;;25.92;5.53;;;;;;;24.99;44.64;101011.66;5013273;28;20029;-76
2022/05/17 08:54:49;;;;;;;26.67;6.18;;;;;;;25.08;44.42;101005.66;5013639;28;20034;-76
2022/05/17 08:57:29;;;;;;;30.55;7.38;;;;;;;24.99;45.08;101016.44;4996753;28;20062;-77
2022/05/17 08:59:56;;;;;;;19.67;6.47;;;;;;;25.18;44.46;101002.03;5014436;28;20026;-76
2022/05/17 09:02:34;;;;;;;19.73;6.10;;;;;;;25.13;44.87;101005.25;4996642;28;20717;-75
2022/05/17 09:05:08;;;;;;;14.38;4.57;;;;;;;25.26;44.32;101009.19;5014350;28;20457;-76
2022/05/17 09:08:00;;;;;;;17.33;6.38;;;;;;;24.90;45.62;101014.09;5014235;28;20040;-75
2022/05/17 09:10:38;;;;;;;16.60;6.53;;;;;;;24.88;45.12;101000.53;5014606;28;20116;-75
2022/05/17 09:13:22;;;;;;;23.30;6.95;;;;;;;25.13;44.39;100991.25;5014714;28;20029;-75
2022/05/17 09:15:51;;;;;;;28.48;6.95;;;;;;;25.22;44.47;100994.41;5014288;28;20083;-75
2022/05/17 09:18:18;;;;;;;28.20;7.25;;;;;;;24.93;44.50;100990.91;5014348;28;20041;-75
2022/05/17 09:20:44;;;;;;;21.80;6.85;;;;;;;24.93;44.84;100996.50;5014707;28;20037;-95
2022/05/17 09:23:13;;;;;;;25.85;7.25;;;;;;;25.14;44.03;100995.66;5014575;28;20061;-75
2022/05/17 09:25:58;;;;;;;25.23;7.55;;;;;;;25.03;44.16;100992.09;5014692;28;20117;-76
2022/05/17 09:28:42;;;;;;;35.53;7.40;;;;;;;25.14;43.93;100995.66;5014202;28;20519;-75
2022/05/17 09:31:10;;;;;;;23.60;7.07;;;;;;;25.16;43.85;100987.66;5014375;28;20419;-75
2022/05/17 09:33:40;;;;;;;27.52;8.25;;;;;;;25.11;43.74;100979.69;5014970;28;20030;-75
2022/05/17 09:36:08;;;;;;;25.48;7.60;;;;;;;25.17;43.73;100992.06;4996437;28;20026;-76
2022/05/17 09:38:39;;;;;;;20.65;6.15;;;;;;;25.09;43.89;100987.69;4996560;28;20156;-95
2022/05/17 09:41:07;;;;;;;30.23;6.10;;;;;;;25.08;43.64;100988.88;5014534;28;20026;-75
2022/05/17 09:43:39;;;;;;;28.23;7.97;;;;;;;24.96;43.71;100990.13;5014943;28;20040;-75
2022/05/17 09:46:16;;;;;;;18.30;6.78;;;;;;;25.11;43.77;100997.28;4996431;28;20539;-75
2022/05/17 09:54:43;;;;;;;24.75;6.93;;;;;;;25.43;42.97;101001.91;5014207;28;20420;-75
2022/05/17 09:57:24;;;;;;;21.48;5.57;;;;;;;25.48;43.07;100992.28;5014029;28;20591;-74
2022/05/17 09:59:54;;;;;;;22.27;5.93;;;;;;;25.59;43.02;100993.81;5013649;28;20508;-94
2022/05/17 10:02:28;;;;;;;22.25;5.47;;;;;;;25.48;43.09;101000.69;4996300;28;20488;-76
2022/05/17 10:04:54;;;;;;;16.90;5.75;;;;;;;25.67;42.90;100986.16;4996237;28;20120;-94
2022/05/17 10:07:21;;;;;;;28.15;7.20;;;;;;;25.33;43.51;100994.38;5014159;28;20473;-75
2022/05/17 10:09:47;;;;;;;19.88;5.03;;;;;;;25.39;43.32;100993.53;4996557;28;20480;-95
2022/05/17 10:12:21;;;;;;;33.70;7.15;;;;;;;25.32;43.32;100990.00;5013859;28;20034;-95
2022/05/17 10:14:52;;;;;;;22.45;7.63;;;;;;;25.71;42.06;100984.97;5013783;28;20032;-75
2022/05/17 10:17:39;;;;;;;18.38;6.32;;;;;;;25.73;42.52;100978.94;5010226;28;20038;-75
2022/05/17 10:20:16;;;;;;;21.83;5.60;;;;;;;25.51;42.54;100969.09;4994755;28;20035;-75
2022/05/17 10:22:52;;;;;;;24.73;5.63;;;;;;;25.57;42.44;100978.63;4976267;28;20381;-75
2022/05/17 10:25:43;;;;;;;26.23;7.75;;;;;;;25.45;42.65;100977.91;5010568;28;20021;-75
2022/05/17 10:28:21;;;;;;;24.02;7.00;;;;;;;25.65;42.25;100975.38;4995767;28;20060;-75
2022/05/17 10:30:55;;;;;;;22.08;5.90;;;;;;;25.71;42.33;100979.38;5014850;28;20028;-75
2022/05/17 10:33:39;;;;;;;19.52;6.75;;;;;;;25.87;41.95;100984.44;4995859;28;20018;-94
2022/05/17 10:36:23;;;;;;;28.88;8.02;;;;;;;25.54;42.60;100979.44;5013352;28;20030;-75
2022/05/17 10:39:23;;;;;;;27.15;6.60;;;;;;;25.46;42.44;100976.69;4996071;28;20041;-76
2022/05/17 10:41:49;;;;;;;27.67;7.07;;;;;;;25.61;41.89;100968.19;4995577;28;20026;-75
2022/05/17 10:44:19;;;;;;;23.33;7.43;;;;;;;25.38;42.16;100963.94;5013478;28;20393;-75
2022/05/17 10:46:49;;;;;;;;;;;;;;;25.29;42.58;100958.03;5013569;28;20124;-76
2022/05/17 10:49:34;;;;;;;28.65;7.35;;;;;;;25.41;42.21;100960.34;4996027;28;19917;-75
2022/05/17 10:52:08;;;;;;;36.53;8.20;;;;;;;25.25;42.62;100959.25;4996050;28;20026;-93
2022/05/17 10:55:04;;;;;;;22.67;7.13;;;;;;;25.53;42.16;100958.28;5013924;28;20156;-76
2022/05/17 10:57:53;;;;;;;21.70;5.90;;;;;;;25.59;42.09;100959.44;4966350;28;20053;-76
2022/05/17 11:00:25;;;;;;;24.17;6.80;;;;;;;25.63;41.89;100963.00;4993210;28;20080;-75
2022/05/17 11:03:21;;;;;;;41.47;8.18;;;;;;;25.41;42.29;100971.53;4976522;28;20038;-75
2022/05/17 11:06:02;;;;;;;23.88;6.60;;;;;;;25.58;42.15;100980.22;5011273;28;20030;-76
2022/05/17 11:08:37;;;;;;;28.98;7.03;;;;;;;25.88;41.65;100980.44;4995309;28;20046;-92
2022/05/17 11:11:39;;;;;;;24.08;6.55;;;;;;;25.89;41.88;100961.63;5015047;28;20076;-76
2022/05/17 11:14:21;;;;;;;28.92;6.78;;;;;;;26.09;41.70;100959.88;4999138;28;20064;-76
2022/05/17 11:17:05;;;;;;;25.65;7.13;;;;;;;25.88;41.79;100952.44;5016477;28;20045;-75
2022/05/17 11:19:37;;;;;;;20.92;6.10;;;;;;;25.98;42.00;100948.75;4998685;28;20369;-76
2022/05/17 11:22:21;;;;;;;26.77;6.38;;;;;;;26.31;41.49;100938.06;4999315;28;20465;-76
2022/05/17 11:25:27;;;;;;;15.35;5.32;;;;;;;26.47;41.09;100938.31;4999979;28;20053;-75
2022/05/17 11:28:26;;;;;;;21.55;6.30;;;;;;;26.49;40.73;100932.28;4959985;28;20078;-76
2022/05/17 11:31:06;;;;;;;32.17;7.10;;;;;;;26.63;40.44;100923.72;4997554;28;20026;-76
2022/05/17 11:33:40;;;;;;;22.38;5.40;;;;;;;26.68;40.78;100911.25;4997809;28;20033;-76
2022/05/17 11:36:32;;;;;;;22.35;6.68;;;;;;;26.91;40.09;100919.75;5005237;28;20383;-76
2022/05/17 11:38:59;;;;;;;22.75;6.55;;;;;;;26.94;39.95;100912.50;5016763;28;20116;-75